Aviation Digital Data Service (ADDS)

Output produced by METARs form (0825 UTC 23 January 2017)
found at http://aviationweather.gov/adds/metars/
 
KPBG 230558Z 2306/2406 35005KT 6SM BR OVC005 
     TEMPO 2306/2310 3SM BR OVC007 
     FM231200 10005KT P6SM OVC025 
     FM240000 07006KT P6SM VCSH OVC040 
     FM240300 07006KT 5SM -SN BR OVC025